createdAt,value
2019-01-25T00:00:24.997Z,-12.38
2019-01-25T00:01:25.059Z,-12.28
2019-01-25T00:02:24.998Z,-12.30
2019-01-25T00:03:24.974Z,-12.36
2019-01-25T00:04:24.965Z,-12.30
2019-01-25T00:05:24.953Z,-12.34
2019-01-25T00:06:24.973Z,-12.36
2019-01-25T00:07:25.328Z,-12.49
2019-01-25T00:08:24.926Z,-12.36
2019-01-25T00:09:24.912Z,-12.36
2019-01-25T00:10:24.919Z,-12.41
2019-01-25T00:11:24.948Z,-12.36
2019-01-25T00:12:24.891Z,-12.36
2019-01-25T00:13:24.884Z,-12.34
2019-01-25T00:14:24.882Z,-12.31
2019-01-25T00:15:24.854Z,-12.34
2019-01-25T00:16:24.880Z,-12.38
2019-01-25T00:17:24.869Z,-12.31
2019-01-25T00:18:24.820Z,-12.28
2019-01-25T00:19:24.828Z,-12.31
2019-01-25T00:20:25.801Z,-12.16
2019-01-25T00:21:24.825Z,-12.20
2019-01-25T00:22:24.788Z,-12.13
2019-01-25T00:23:24.824Z,-12.17
2019-01-25T00:24:24.801Z,-12.17
2019-01-25T00:25:24.757Z,-12.20
2019-01-25T00:26:24.748Z,-12.16
2019-01-25T00:27:24.733Z,-12.31
2019-01-25T00:28:24.724Z,-12.27
2019-01-25T00:29:24.758Z,-12.31
2019-01-25T00:30:24.703Z,-12.17
2019-01-25T00:31:24.695Z,-12.23
2019-01-25T00:32:24.679Z,-12.20
2019-01-25T00:33:24.685Z,-12.21
2019-01-25T00:34:24.667Z,-12.21
2019-01-25T00:35:24.698Z,-12.21
2019-01-25T00:36:24.728Z,-12.34
2019-01-25T00:37:24.631Z,-12.34
2019-01-25T00:38:24.625Z,-12.31
2019-01-25T00:39:24.611Z,-12.12
2019-01-25T00:40:24.658Z,-12.21
2019-01-25T00:41:24.606Z,-12.20
2019-01-25T00:42:24.597Z,-12.21
2019-01-25T00:43:24.570Z,-12.24
2019-01-25T00:44:24.564Z,-12.28
2019-01-25T00:45:24.586Z,-12.38
2019-01-25T00:46:24.594Z,-12.34
2019-01-25T00:47:24.573Z,-12.52
2019-01-25T00:48:24.526Z,-12.48
2019-01-25T00:49:24.515Z,-12.43
2019-01-25T00:50:24.578Z,-12.43
2019-01-25T00:51:24.488Z,-12.49
2019-01-25T00:52:24.484Z,-12.52
2019-01-25T00:53:24.481Z,-12.43
2019-01-25T00:54:24.498Z,-12.48
2019-01-25T00:55:24.458Z,-12.48
2019-01-25T00:56:24.501Z,-12.52
2019-01-25T00:57:24.433Z,-12.51
2019-01-25T00:58:24.428Z,-12.49
2019-01-25T00:59:24.422Z,-12.46
2019-01-25T01:00:24.402Z,-12.56
2019-01-25T01:01:24.406Z,-12.51
2019-01-25T01:02:24.426Z,-12.39
2019-01-25T01:03:24.368Z,-12.30
2019-01-25T01:04:24.364Z,-12.39
2019-01-25T01:05:24.394Z,-12.52
2019-01-25T01:06:24.353Z,-12.46
2019-01-25T01:07:24.336Z,-12.43
2019-01-25T01:08:24.370Z,-12.51
2019-01-25T01:09:24.303Z,-12.54
2019-01-25T01:10:24.312Z,-12.48
2019-01-25T01:11:24.336Z,-12.46
2019-01-25T01:12:24.281Z,-12.49
2019-01-25T01:13:24.272Z,-12.46
2019-01-25T01:14:24.260Z,-12.51
2019-01-25T01:15:24.300Z,-12.49
2019-01-25T01:16:24.239Z,-12.51
2019-01-25T01:17:24.254Z,-12.54
2019-01-25T01:18:24.227Z,-12.54
2019-01-25T01:19:24.208Z,-12.48
2019-01-25T01:20:24.198Z,-12.46
2019-01-25T01:21:24.234Z,-12.48
2019-01-25T01:22:24.181Z,-12.52
2019-01-25T01:23:24.169Z,-12.46
2019-01-25T01:24:24.155Z,-12.49
2019-01-25T01:25:24.173Z,-12.56
2019-01-25T01:26:24.158Z,-12.60
2019-01-25T01:27:24.194Z,-12.69
2019-01-25T01:28:24.125Z,-12.66
2019-01-25T01:29:24.119Z,-12.67
2019-01-25T01:30:24.144Z,-12.63
2019-01-25T01:31:24.092Z,-12.72
2019-01-25T01:32:24.076Z,-12.67
2019-01-25T01:33:24.104Z,-12.69
2019-01-25T01:34:24.054Z,-12.72
2019-01-25T01:35:24.077Z,-12.63
2019-01-25T01:36:24.086Z,-12.74
2019-01-25T01:37:24.026Z,-12.83
2019-01-25T01:38:24.073Z,-12.80
2019-01-25T01:39:24.008Z,-12.78
2019-01-25T01:40:24.761Z,-12.80
2019-01-25T01:41:24.060Z,-12.75
2019-01-25T01:42:23.979Z,-12.77
2019-01-25T01:43:23.978Z,-12.62
2019-01-25T01:44:23.975Z,-12.72
2019-01-25T01:45:23.965Z,-12.78
2019-01-25T01:46:23.944Z,-12.74
2019-01-25T01:47:23.987Z,-12.80
2019-01-25T01:48:23.923Z,-12.85
2019-01-25T01:49:23.906Z,-12.85
2019-01-25T01:50:23.950Z,-12.90
2019-01-25T01:51:23.935Z,-13.04
2019-01-25T01:52:23.878Z,-12.98
2019-01-25T01:53:23.865Z,-13.02
2019-01-25T01:54:23.860Z,-13.05
2019-01-25T01:55:23.870Z,-12.94
2019-01-25T01:56:23.833Z,-12.70
2019-01-25T01:57:23.867Z,-12.66
2019-01-25T01:58:23.808Z,-12.64
2019-01-25T01:59:23.802Z,-12.60
2019-01-25T02:00:23.791Z,-12.69
2019-01-25T02:01:23.778Z,-12.62
2019-01-25T02:02:23.797Z,-12.80
2019-01-25T02:03:23.797Z,-12.90
2019-01-25T02:04:23.749Z,-12.88
2019-01-25T02:05:23.774Z,-12.88
2019-01-25T02:06:23.727Z,-12.90
2019-01-25T02:07:23.720Z,-13.01
2019-01-25T02:08:23.715Z,-13.01
2019-01-25T02:09:23.743Z,-13.01
2019-01-25T02:10:29.217Z,-12.88
2019-01-25T02:11:24.679Z,-12.84
2019-01-25T02:12:23.670Z,-12.83
2019-01-25T02:13:23.658Z,-12.81
2019-01-25T02:14:23.687Z,-12.85
2019-01-25T02:15:23.652Z,-12.88
2019-01-25T02:16:23.626Z,-12.88
2019-01-25T02:17:23.621Z,-12.99
2019-01-25T02:18:23.616Z,-13.05
2019-01-25T02:19:23.599Z,-13.01
2019-01-25T02:20:23.651Z,-12.98
2019-01-25T02:21:23.593Z,-13.05
2019-01-25T02:22:23.571Z,-12.88
2019-01-25T02:23:23.559Z,-12.96
2019-01-25T02:24:23.551Z,-13.01
2019-01-25T02:25:23.538Z,-12.96
2019-01-25T02:26:23.576Z,-13.01
2019-01-25T02:27:23.518Z,-13.01
2019-01-25T02:28:23.511Z,-13.12
2019-01-25T02:29:23.516Z,-13.16
2019-01-25T02:30:23.497Z,-13.09
2019-01-25T02:31:23.480Z,-13.20
2019-01-25T02:32:23.507Z,-13.05
2019-01-25T02:33:23.462Z,-13.20
2019-01-25T02:34:23.463Z,-13.16
2019-01-25T02:35:23.466Z,-12.99
2019-01-25T02:36:23.433Z,-12.99
2019-01-25T02:37:23.424Z,-13.01
2019-01-25T02:38:23.454Z,-13.05
2019-01-25T02:39:23.399Z,-13.04
2019-01-25T02:40:23.389Z,-13.13
2019-01-25T02:41:23.378Z,-13.13
2019-01-25T02:42:23.380Z,-13.02
2019-01-25T02:43:23.365Z,-13.19
2019-01-25T02:44:23.388Z,-13.05
2019-01-25T02:45:23.339Z,-13.01
2019-01-25T02:46:23.331Z,-13.06
2019-01-25T02:47:23.321Z,-13.17
2019-01-25T02:48:23.324Z,-13.19
2019-01-25T02:49:23.302Z,-13.13
2019-01-25T02:50:23.329Z,-13.19
2019-01-25T02:51:23.284Z,-13.26
2019-01-25T02:52:23.267Z,-13.31
2019-01-25T02:53:23.259Z,-13.27
2019-01-25T02:54:23.307Z,-13.16
2019-01-25T02:55:23.237Z,-13.26
2019-01-25T02:56:23.232Z,-13.22
2019-01-25T02:57:23.224Z,-13.16
2019-01-25T02:58:23.209Z,-13.06
2019-01-25T02:59:23.201Z,-13.06
2019-01-25T03:00:23.227Z,-13.12
2019-01-25T03:01:23.197Z,-13.13
2019-01-25T03:02:23.169Z,-13.13
2019-01-25T03:03:23.164Z,-12.99
2019-01-25T03:04:23.148Z,-13.09
2019-01-25T03:05:23.173Z,-13.09
2019-01-25T03:06:23.129Z,-13.02
2019-01-25T03:07:23.136Z,-13.12
2019-01-25T03:08:23.134Z,-13.02
2019-01-25T03:09:23.100Z,-13.17
2019-01-25T03:10:28.480Z,-13.22
2019-01-25T03:11:24.120Z,-13.19
2019-01-25T03:12:23.069Z,-13.17
2019-01-25T03:13:23.075Z,-13.30
2019-01-25T03:14:23.048Z,-13.30
2019-01-25T03:15:23.045Z,-13.27
2019-01-25T03:16:23.036Z,-13.26
2019-01-25T03:17:23.061Z,-13.37
2019-01-25T03:18:23.009Z,-13.37
2019-01-25T03:19:23.021Z,-13.31
2019-01-25T03:20:22.993Z,-13.24
2019-01-25T03:21:22.983Z,-13.33
2019-01-25T03:22:22.973Z,-13.20
2019-01-25T03:23:22.997Z,-13.17
2019-01-25T03:24:22.946Z,-13.19
2019-01-25T03:25:22.957Z,-13.26
2019-01-25T03:26:22.930Z,-13.40
2019-01-25T03:27:22.919Z,-13.37
2019-01-25T03:28:22.906Z,-13.34
2019-01-25T03:29:22.933Z,-13.34
2019-01-25T03:30:22.938Z,-13.27
2019-01-25T03:31:22.902Z,-13.26
2019-01-25T03:32:22.877Z,-13.31
2019-01-25T03:33:22.869Z,-13.41
2019-01-25T03:34:22.848Z,-13.40
2019-01-25T03:35:22.838Z,-13.44
2019-01-25T03:36:22.870Z,-13.38
2019-01-25T03:37:22.836Z,-13.37
2019-01-25T03:38:22.811Z,-13.34
2019-01-25T03:39:22.801Z,-13.35
2019-01-25T03:40:22.791Z,-13.41
2019-01-25T03:41:22.776Z,-13.27
2019-01-25T03:42:22.819Z,-13.19
2019-01-25T03:43:22.756Z,-13.22
2019-01-25T03:44:22.760Z,-13.26
2019-01-25T03:45:22.759Z,-13.35
2019-01-25T03:46:22.726Z,-13.34
2019-01-25T03:47:22.719Z,-13.37
2019-01-25T03:48:22.755Z,-13.41
2019-01-25T03:49:22.705Z,-13.40
2019-01-25T03:50:22.699Z,-13.31
2019-01-25T03:51:22.679Z,-13.30
2019-01-25T03:52:22.706Z,-13.27
2019-01-25T03:53:22.657Z,-13.27
2019-01-25T03:54:22.646Z,-13.27
2019-01-25T03:55:22.644Z,-13.27
2019-01-25T03:56:22.628Z,-13.26
2019-01-25T03:57:22.629Z,-13.26
2019-01-25T03:58:22.647Z,-13.31
2019-01-25T03:59:22.600Z,-13.19
2019-01-25T04:00:22.586Z,-13.22
2019-01-25T04:01:22.581Z,-13.24
2019-01-25T04:02:22.567Z,-13.31
2019-01-25T04:03:22.568Z,-13.20
2019-01-25T04:04:22.584Z,-13.23
2019-01-25T04:05:22.538Z,-13.30
2019-01-25T04:06:22.529Z,-13.27
2019-01-25T04:07:22.520Z,-13.05
2019-01-25T04:08:22.543Z,-13.05
2019-01-25T04:09:22.559Z,-13.09
2019-01-25T04:10:22.487Z,-13.12
2019-01-25T04:11:22.477Z,-13.22
2019-01-25T04:12:22.469Z,-13.19
2019-01-25T04:13:22.456Z,-13.13
2019-01-25T04:14:22.446Z,-13.23
2019-01-25T04:15:22.502Z,-13.19
2019-01-25T04:16:22.427Z,-13.20
2019-01-25T04:17:22.427Z,-13.30
2019-01-25T04:18:22.410Z,-13.19
2019-01-25T04:19:22.401Z,-13.23
2019-01-25T04:20:22.391Z,-13.20
2019-01-25T04:21:22.426Z,-13.22
2019-01-25T04:22:22.369Z,-13.20
2019-01-25T04:23:22.359Z,-13.13
2019-01-25T04:24:22.349Z,-13.20
2019-01-25T04:25:22.375Z,-13.23
2019-01-25T04:26:22.334Z,-13.20
2019-01-25T04:27:22.371Z,-13.34
2019-01-25T04:28:22.316Z,-13.19
2019-01-25T04:29:22.304Z,-13.04
2019-01-25T04:30:22.293Z,-13.04
2019-01-25T04:31:22.281Z,-13.22
2019-01-25T04:32:22.269Z,-12.98
2019-01-25T04:33:22.298Z,-13.14
2019-01-25T04:34:22.259Z,-13.13
2019-01-25T04:35:22.239Z,-13.19
2019-01-25T04:36:22.233Z,-13.20
2019-01-25T04:37:22.216Z,-13.20
2019-01-25T04:38:22.209Z,-13.20
2019-01-25T04:39:22.245Z,-13.16
2019-01-25T04:40:22.216Z,-13.09
2019-01-25T04:41:22.196Z,-13.12
2019-01-25T04:42:22.172Z,-13.06
2019-01-25T04:43:22.164Z,-13.17
2019-01-25T04:44:22.153Z,-13.14
2019-01-25T04:45:22.178Z,-13.01
2019-01-25T04:46:22.140Z,-13.12
2019-01-25T04:47:22.136Z,-13.08
2019-01-25T04:48:22.110Z,-13.14
2019-01-25T04:49:22.733Z,-13.13
2019-01-25T04:50:22.131Z,-13.20
2019-01-25T04:51:22.077Z,-13.30
2019-01-25T04:52:22.085Z,-13.24
2019-01-25T04:53:22.060Z,-13.33
2019-01-25T04:54:22.050Z,-13.37
2019-01-25T04:55:22.070Z,-13.27
2019-01-25T04:56:22.072Z,-13.33
2019-01-25T04:57:22.026Z,-13.34
2019-01-25T04:58:22.008Z,-13.44
2019-01-25T04:59:22.008Z,-13.47
2019-01-25T05:00:22.014Z,-13.33
2019-01-25T05:01:22.019Z,-13.35
2019-01-25T05:02:22.017Z,-13.35
2019-01-25T05:03:21.963Z,-13.37
2019-01-25T05:04:21.950Z,-13.41
2019-01-25T05:05:21.957Z,-13.38
2019-01-25T05:06:21.952Z,-13.27
2019-01-25T05:07:21.961Z,-13.44
2019-01-25T05:08:21.919Z,-13.44
2019-01-25T05:09:21.902Z,-13.33
2019-01-25T05:10:21.887Z,-13.27
2019-01-25T05:11:21.883Z,-13.34
2019-01-25T05:12:21.869Z,-13.31
2019-01-25T05:13:21.907Z,-13.49
2019-01-25T05:14:21.859Z,-13.51
2019-01-25T05:15:21.840Z,-13.45
2019-01-25T05:16:21.841Z,-13.34
2019-01-25T05:17:21.837Z,-13.31
2019-01-25T05:18:21.814Z,-13.37
2019-01-25T05:19:21.844Z,-13.30
2019-01-25T05:20:21.799Z,-13.27
2019-01-25T05:21:21.781Z,-13.27
2019-01-25T05:22:21.825Z,-13.26
2019-01-25T05:23:21.763Z,-13.34
2019-01-25T05:24:21.761Z,-13.34
2019-01-25T05:25:21.740Z,-13.34
2019-01-25T05:26:21.735Z,-13.27
2019-01-25T05:27:21.756Z,-13.20
2019-01-25T05:28:21.718Z,-13.30
2019-01-25T05:29:21.699Z,-13.24
2019-01-25T05:30:21.691Z,-13.20
2019-01-25T05:31:21.688Z,-13.19
2019-01-25T05:32:21.673Z,-13.31
2019-01-25T05:33:21.692Z,-13.24
2019-01-25T05:34:21.666Z,-13.20
2019-01-25T05:35:21.648Z,-13.20
2019-01-25T05:36:21.625Z,-13.19
2019-01-25T05:37:21.655Z,-13.16
2019-01-25T05:38:21.616Z,-13.20
2019-01-25T05:39:21.639Z,-13.14
2019-01-25T05:40:21.588Z,-13.17
2019-01-25T05:41:28.217Z,-13.19
2019-01-25T05:42:22.613Z,-13.37
2019-01-25T05:43:21.561Z,-13.33
2019-01-25T05:44:21.549Z,-13.27
2019-01-25T05:45:21.542Z,-13.41
2019-01-25T05:46:21.530Z,-13.41
2019-01-25T05:47:21.520Z,-13.43
2019-01-25T05:48:21.565Z,-13.45
2019-01-25T05:49:21.501Z,-13.40
2019-01-25T05:50:21.487Z,-13.51
2019-01-25T05:51:21.480Z,-13.47
2019-01-25T05:52:21.476Z,-13.49
2019-01-25T05:53:21.461Z,-13.56
2019-01-25T05:54:21.515Z,-13.47
2019-01-25T05:55:21.447Z,-13.52
2019-01-25T05:56:21.439Z,-13.55
2019-01-25T05:57:21.421Z,-13.54
2019-01-25T05:58:21.447Z,-13.54
2019-01-25T05:59:21.402Z,-13.51
2019-01-25T06:00:21.391Z,-13.54
2019-01-25T06:01:21.390Z,-13.51
2019-01-25T06:02:21.376Z,-13.45
2019-01-25T06:03:21.394Z,-13.41
2019-01-25T06:04:21.356Z,-13.45
2019-01-25T06:05:21.341Z,-13.52
2019-01-25T06:06:21.345Z,-13.45
2019-01-25T06:07:21.318Z,-13.49
2019-01-25T06:08:21.330Z,-13.49
2019-01-25T06:09:21.334Z,-13.49
2019-01-25T06:10:21.329Z,-13.52
2019-01-25T06:11:21.281Z,-13.58
2019-01-25T06:12:21.268Z,-13.54
2019-01-25T06:13:21.259Z,-13.47
2019-01-25T06:14:21.261Z,-13.52
2019-01-25T06:15:21.240Z,-13.51
2019-01-25T06:16:21.268Z,-13.55
2019-01-25T06:17:21.220Z,-13.56
2019-01-25T06:18:21.261Z,-13.70
2019-01-25T06:19:21.206Z,-13.71
2019-01-25T06:20:21.201Z,-13.78
2019-01-25T06:21:21.228Z,-13.76
2019-01-25T06:22:21.169Z,-13.77
2019-01-25T06:23:21.163Z,-13.87
2019-01-25T06:24:21.150Z,-13.88
2019-01-25T06:25:21.184Z,-13.83
2019-01-25T06:26:21.135Z,-13.83
2019-01-25T06:27:21.128Z,-13.73
2019-01-25T06:28:21.114Z,-13.65
2019-01-25T06:29:21.108Z,-13.61
2019-01-25T06:30:21.095Z,-13.56
2019-01-25T06:31:21.120Z,-13.52
2019-01-25T06:32:21.069Z,-13.58
2019-01-25T06:33:21.071Z,-13.55
2019-01-25T06:34:21.058Z,-13.67
2019-01-25T06:35:21.045Z,-13.70
2019-01-25T06:36:21.043Z,-13.62
2019-01-25T06:37:21.076Z,-13.58
2019-01-25T06:38:21.019Z,-13.59
2019-01-25T06:39:21.006Z,-13.67
2019-01-25T06:40:20.995Z,-13.64
2019-01-25T06:41:20.984Z,-13.61
2019-01-25T06:42:20.978Z,-13.65
2019-01-25T06:43:20.998Z,-13.59
2019-01-25T06:44:20.955Z,-13.58
2019-01-25T06:45:20.966Z,-13.61
2019-01-25T06:46:20.933Z,-13.61
2019-01-25T06:47:20.925Z,-13.56
2019-01-25T06:48:20.938Z,-13.54
2019-01-25T06:49:20.945Z,-13.65
2019-01-25T06:50:20.893Z,-13.56
2019-01-25T06:51:20.883Z,-13.59
2019-01-25T06:52:20.878Z,-13.61
2019-01-25T06:53:20.868Z,-13.56
2019-01-25T06:54:20.874Z,-13.56
2019-01-25T06:55:20.884Z,-13.65
2019-01-25T06:56:20.838Z,-13.77
2019-01-25T06:57:20.826Z,-13.87
2019-01-25T06:58:20.816Z,-13.87
2019-01-25T06:59:20.806Z,-13.81
2019-01-25T07:00:20.831Z,-13.74
2019-01-25T07:01:20.784Z,-13.88
2019-01-25T07:02:20.790Z,-13.83
2019-01-25T07:03:20.761Z,-13.88
2019-01-25T07:04:20.754Z,-13.70
2019-01-25T07:05:20.742Z,-13.74
2019-01-25T07:06:20.779Z,-13.70
2019-01-25T07:07:20.722Z,-13.73
2019-01-25T07:08:20.723Z,-13.59
2019-01-25T07:09:20.712Z,-13.54
2019-01-25T07:10:20.696Z,-13.51
2019-01-25T07:11:20.687Z,-13.44
2019-01-25T07:12:20.710Z,-13.41
2019-01-25T07:13:20.670Z,-13.20
2019-01-25T07:14:20.669Z,-13.09
2019-01-25T07:15:20.642Z,-13.22
2019-01-25T07:16:20.675Z,-13.17
2019-01-25T07:17:20.623Z,-13.22
2019-01-25T07:18:20.618Z,-13.20
2019-01-25T07:19:20.604Z,-13.22
2019-01-25T07:20:20.618Z,-13.30
2019-01-25T07:21:20.587Z,-13.24
2019-01-25T07:22:20.613Z,-13.27
2019-01-25T07:23:20.569Z,-13.14
2019-01-25T07:24:20.559Z,-13.17
2019-01-25T07:25:20.542Z,-13.24
2019-01-25T07:26:20.547Z,-13.14
2019-01-25T07:27:20.521Z,-13.19
2019-01-25T07:28:20.558Z,-13.27
2019-01-25T07:29:20.553Z,-13.27
2019-01-25T07:30:20.515Z,-13.24
2019-01-25T07:31:20.519Z,-13.09
2019-01-25T07:32:20.493Z,-13.22
2019-01-25T07:33:20.552Z,-13.16
2019-01-25T07:34:20.505Z,-13.16
2019-01-25T07:35:21.061Z,-13.06
2019-01-25T07:36:20.438Z,-13.04
2019-01-25T07:37:20.427Z,-13.04
2019-01-25T07:38:20.414Z,-12.95
2019-01-25T07:39:20.403Z,-12.83
2019-01-25T07:40:20.472Z,-12.80
2019-01-25T07:41:20.410Z,-12.74
2019-01-25T07:42:20.374Z,-12.78
2019-01-25T07:43:20.394Z,-12.69
2019-01-25T07:44:20.595Z,-12.62
2019-01-25T07:45:20.361Z,-12.45
2019-01-25T07:46:20.396Z,-12.28
2019-01-25T07:47:20.388Z,-12.36
2019-01-25T07:48:20.359Z,-12.32
2019-01-25T07:49:20.318Z,-12.21
2019-01-25T07:50:20.298Z,-12.27
2019-01-25T07:51:20.304Z,-12.21
2019-01-25T07:52:20.313Z,-12.20
2019-01-25T07:53:22.142Z,-12.06
2019-01-25T07:54:20.260Z,-12.06
2019-01-25T07:55:20.264Z,-12.05
2019-01-25T07:56:20.311Z,-12.05
2019-01-25T07:57:20.233Z,-12.02
2019-01-25T07:58:20.216Z,-12.02
2019-01-25T07:59:20.229Z,-12.03
2019-01-25T08:00:20.201Z,-12.08
2019-01-25T08:01:20.224Z,-11.95
2019-01-25T08:02:20.444Z,-12.06
2019-01-25T08:03:20.160Z,-12.02
2019-01-25T08:04:20.189Z,-12.06
2019-01-25T08:05:20.155Z,-12.00
2019-01-25T08:06:20.156Z,-12.17
2019-01-25T08:07:20.155Z,-12.19
2019-01-25T08:08:20.157Z,-12.30
2019-01-25T08:09:20.108Z,-12.31
2019-01-25T08:10:20.094Z,-12.36
2019-01-25T08:11:20.093Z,-12.38
2019-01-25T08:12:20.077Z,-12.21
2019-01-25T08:13:20.087Z,-12.32
2019-01-25T08:14:20.130Z,-12.36
2019-01-25T08:15:20.059Z,-12.31
2019-01-25T08:16:20.035Z,-12.24
2019-01-25T08:17:20.043Z,-12.34
2019-01-25T08:18:20.011Z,-12.39
2019-01-25T08:19:20.006Z,-12.41
2019-01-25T08:20:20.046Z,-12.38
2019-01-25T08:21:19.979Z,-12.19
2019-01-25T08:22:19.978Z,-12.17
2019-01-25T08:23:20.003Z,-12.06
2019-01-25T08:24:19.989Z,-11.99
2019-01-25T08:25:19.979Z,-11.88
2019-01-25T08:26:19.931Z,-11.90
2019-01-25T08:27:19.986Z,-11.82
2019-01-25T08:28:19.917Z,-11.88
2019-01-25T08:29:27.682Z,-11.80
2019-01-25T08:30:20.941Z,-12.05
2019-01-25T08:31:19.881Z,-12.17
2019-01-25T08:32:19.923Z,-12.08
2019-01-25T08:33:19.890Z,-12.09
2019-01-25T08:34:19.872Z,-12.10
2019-01-25T08:35:19.888Z,-12.31
2019-01-25T08:36:19.830Z,-12.36
2019-01-25T08:37:19.820Z,-12.32
2019-01-25T08:38:19.810Z,-12.39
2019-01-25T08:39:19.820Z,-12.46
2019-01-25T08:40:19.917Z,-12.45
2019-01-25T08:41:19.815Z,-12.43
2019-01-25T08:42:19.818Z,-12.49
2019-01-25T08:43:19.768Z,-12.34
2019-01-25T08:44:19.784Z,-12.23
2019-01-25T08:45:19.823Z,-12.34
2019-01-25T08:46:19.733Z,-12.23
2019-01-25T08:47:19.731Z,-12.19
2019-01-25T08:48:19.746Z,-12.31
2019-01-25T08:49:19.724Z,-12.36
2019-01-25T08:50:19.727Z,-12.32
2019-01-25T08:51:19.704Z,-12.17
2019-01-25T08:52:19.714Z,-12.17
2019-01-25T08:53:19.691Z,-12.12
2019-01-25T08:54:19.755Z,-12.16
2019-01-25T08:55:21.388Z,-12.00
2019-01-25T08:56:19.677Z,-11.87
2019-01-25T08:57:19.621Z,-11.73
2019-01-25T08:58:19.622Z,-11.64
2019-01-25T08:59:19.705Z,-11.56
2019-01-25T09:00:19.601Z,-11.52
2019-01-25T09:01:19.581Z,-11.53
2019-01-25T09:02:19.608Z,-11.50
2019-01-25T09:03:19.566Z,-11.17
2019-01-25T09:04:19.551Z,-11.24
2019-01-25T09:05:19.554Z,-11.32
2019-01-25T09:06:19.526Z,-11.27
2019-01-25T09:07:19.517Z,-11.02
2019-01-25T09:08:19.554Z,-10.90
2019-01-25T09:09:19.496Z,-10.63
2019-01-25T09:10:19.487Z,-10.53
2019-01-25T09:11:19.497Z,-10.53
2019-01-25T09:12:23.443Z,-10.35
2019-01-25T09:13:19.501Z,-10.34
2019-01-25T09:14:19.494Z,-10.10
2019-01-25T09:15:19.433Z,-9.87
2019-01-25T09:16:19.433Z,-9.75
2019-01-25T09:17:19.436Z,-9.79
2019-01-25T09:18:19.410Z,-9.90
2019-01-25T09:19:19.409Z,-9.96
2019-01-25T09:20:19.436Z,-10.16
2019-01-25T09:21:19.380Z,-10.00
2019-01-25T09:22:19.366Z,-9.81
2019-01-25T09:23:19.360Z,-9.58
2019-01-25T09:24:19.368Z,-9.58
2019-01-25T09:25:19.336Z,-9.57
2019-01-25T09:26:19.368Z,-8.97
2019-01-25T09:27:19.321Z,-8.21
2019-01-25T09:28:19.306Z,-7.00
2019-01-25T09:29:19.296Z,-6.00
2019-01-25T09:30:19.317Z,-5.49
2019-01-25T09:31:19.293Z,-5.66
2019-01-25T09:32:19.266Z,-5.59
2019-01-25T09:33:19.254Z,-5.23
2019-01-25T09:34:19.250Z,-5.42
2019-01-25T09:35:19.236Z,-5.41
2019-01-25T09:36:19.266Z,-5.24
2019-01-25T09:37:19.235Z,-4.87
2019-01-25T09:38:19.207Z,-4.62
2019-01-25T09:39:19.192Z,-4.04
2019-01-25T09:40:19.185Z,-4.23
2019-01-25T09:41:19.179Z,-4.45
2019-01-25T09:42:19.205Z,-3.58
2019-01-25T09:43:19.193Z,-2.69
2019-01-25T09:44:19.150Z,-2.56
2019-01-25T09:45:19.144Z,-2.01
2019-01-25T09:46:19.118Z,-1.67
2019-01-25T09:47:19.109Z,-1.89
2019-01-25T09:48:19.100Z,-1.28
2019-01-25T09:49:19.132Z,-1.36
2019-01-25T09:50:19.076Z,-1.77
2019-01-25T09:51:19.081Z,-1.59
2019-01-25T09:52:19.053Z,-1.70
2019-01-25T09:53:19.051Z,-2.32
2019-01-25T09:54:19.035Z,-2.07
2019-01-25T09:55:19.068Z,-1.77
2019-01-25T09:56:19.012Z,-1.00
2019-01-25T09:57:19.006Z,-0.97
2019-01-25T09:58:19.010Z,-1.35
2019-01-25T09:59:18.983Z,-1.93
2019-01-25T10:00:18.974Z,-2.56
2019-01-25T10:01:19.008Z,-2.79
2019-01-25T10:02:18.953Z,-2.61
2019-01-25T10:03:18.944Z,-1.96
2019-01-25T10:04:18.947Z,-1.75
2019-01-25T10:05:18.919Z,-2.01
2019-01-25T10:06:18.909Z,-2.69
2019-01-25T10:07:18.944Z,-3.04
2019-01-25T10:08:18.887Z,-2.84
2019-01-25T10:09:18.881Z,-2.90
2019-01-25T10:10:18.911Z,-2.41
2019-01-25T10:11:18.857Z,-2.74
2019-01-25T10:12:18.852Z,-3.59
2019-01-25T10:13:18.873Z,-3.81
2019-01-25T10:14:18.826Z,-3.39
2019-01-25T10:15:18.821Z,-3.04
2019-01-25T10:16:18.807Z,-2.40
2019-01-25T10:17:18.846Z,-2.84
2019-01-25T10:18:18.799Z,-3.07
2019-01-25T10:19:18.773Z,-2.98
2019-01-25T10:20:18.764Z,-2.86
2019-01-25T10:21:18.755Z,-2.94
2019-01-25T10:22:18.807Z,-2.74
2019-01-25T10:23:18.730Z,-3.21
2019-01-25T10:24:18.721Z,-3.28
2019-01-25T10:25:18.726Z,-3.21
2019-01-25T10:26:18.701Z,-2.65
2019-01-25T10:27:18.696Z,-2.82
2019-01-25T10:28:18.714Z,-2.72
2019-01-25T10:29:18.684Z,-1.86
2019-01-25T10:30:18.660Z,-1.41
2019-01-25T10:31:18.661Z,-1.17
2019-01-25T10:32:18.642Z,-1.02
2019-01-25T10:33:18.625Z,-1.15
2019-01-25T10:34:18.674Z,-1.72
2019-01-25T10:35:18.606Z,-2.53
2019-01-25T10:36:18.595Z,-2.50
2019-01-25T10:37:18.606Z,-2.80
2019-01-25T10:38:18.575Z,-2.80
2019-01-25T10:39:18.564Z,-2.68
2019-01-25T10:40:18.587Z,-2.48
2019-01-25T10:41:18.549Z,-2.43
2019-01-25T10:42:18.534Z,-2.72
2019-01-25T10:43:18.542Z,-2.94
2019-01-25T10:44:18.511Z,-2.28
2019-01-25T10:45:18.500Z,-2.18
2019-01-25T10:46:18.519Z,-2.61
2019-01-25T10:47:18.482Z,-2.65
2019-01-25T10:48:18.501Z,-2.41
2019-01-25T10:49:18.483Z,-2.87
2019-01-25T10:50:18.447Z,-2.89
2019-01-25T10:51:18.437Z,-2.69
2019-01-25T10:52:18.425Z,-2.84
2019-01-25T10:53:18.448Z,-2.46
2019-01-25T10:54:18.407Z,-2.94
2019-01-25T10:55:18.408Z,-2.74
2019-01-25T10:56:18.392Z,-3.19
2019-01-25T10:57:18.413Z,-3.02
2019-01-25T10:58:18.362Z,-2.82
2019-01-25T10:59:18.359Z,-2.94
2019-01-25T11:00:18.340Z,-3.15
2019-01-25T11:01:18.350Z,-3.34
2019-01-25T11:02:18.318Z,-3.21
2019-01-25T11:03:18.352Z,-3.36
2019-01-25T11:04:18.298Z,-3.61
2019-01-25T11:05:18.285Z,-3.25
2019-01-25T11:06:18.276Z,-3.33
2019-01-25T11:07:18.279Z,-3.51
2019-01-25T11:08:18.259Z,-2.89
2019-01-25T11:09:19.951Z,-3.49
2019-01-25T11:10:18.238Z,-3.08
2019-01-25T11:11:18.236Z,-3.08
2019-01-25T11:12:18.215Z,-2.86
2019-01-25T11:13:18.200Z,-3.16
2019-01-25T11:14:18.215Z,-3.49
2019-01-25T11:15:18.222Z,-3.62
2019-01-25T11:16:18.174Z,-3.57
2019-01-25T11:17:18.164Z,-3.19
2019-01-25T11:18:18.146Z,-3.12
2019-01-25T11:19:18.138Z,-3.16
2019-01-25T11:20:18.149Z,-3.30
2019-01-25T11:21:18.209Z,-3.47
2019-01-25T11:22:18.105Z,-3.36
2019-01-25T11:23:18.098Z,-3.15
2019-01-25T11:24:18.092Z,-3.18
2019-01-25T11:25:18.453Z,-3.52
2019-01-25T11:26:18.074Z,-3.40
2019-01-25T11:27:18.057Z,-3.40
2019-01-25T11:28:18.111Z,-3.30
2019-01-25T11:29:18.040Z,-3.26
2019-01-25T11:30:18.035Z,-3.23
2019-01-25T11:31:18.054Z,-3.39
2019-01-25T11:32:18.015Z,-3.55
2019-01-25T11:33:18.014Z,-3.57
2019-01-25T11:34:17.984Z,-3.41
2019-01-25T11:35:17.981Z,-3.39
2019-01-25T11:36:17.967Z,-3.81
2019-01-25T11:37:18.036Z,-3.58
2019-01-25T11:38:17.956Z,-3.61
2019-01-25T11:39:17.937Z,-3.21
2019-01-25T11:40:17.943Z,-2.90
2019-01-25T11:41:17.911Z,-3.22
2019-01-25T11:42:17.906Z,-2.84
2019-01-25T11:43:17.941Z,-3.10
2019-01-25T11:44:17.886Z,-2.90
2019-01-25T11:45:17.869Z,-2.71
2019-01-25T11:46:17.857Z,-2.98
2019-01-25T11:47:17.857Z,-2.71
2019-01-25T11:48:17.834Z,-2.55
2019-01-25T11:49:17.866Z,-2.76
2019-01-25T11:50:17.814Z,-2.97
2019-01-25T11:51:17.804Z,-2.98
2019-01-25T11:52:17.803Z,-2.95
2019-01-25T11:53:17.782Z,-3.07
2019-01-25T11:54:17.944Z,-2.86
2019-01-25T11:55:17.803Z,-3.39
2019-01-25T11:56:17.753Z,-3.16
2019-01-25T11:57:17.768Z,-3.00
2019-01-25T11:58:17.734Z,-2.90
2019-01-25T11:59:17.758Z,-2.90
2019-01-25T12:00:17.709Z,-3.31
2019-01-25T12:01:17.701Z,-2.82
2019-01-25T12:02:21.025Z,-2.76
2019-01-25T12:03:17.714Z,-3.00
2019-01-25T12:04:17.678Z,-3.15
2019-01-25T12:05:17.700Z,-3.69
2019-01-25T12:06:17.645Z,-4.19
2019-01-25T12:07:17.633Z,-3.91
2019-01-25T12:08:17.626Z,-3.99
2019-01-25T12:09:17.617Z,-4.06
2019-01-25T12:10:17.612Z,-3.52
2019-01-25T12:11:17.643Z,-3.86
2019-01-25T12:12:17.585Z,-3.77
2019-01-25T12:13:17.570Z,-3.57
2019-01-25T12:14:17.559Z,-3.65
2019-01-25T12:15:17.546Z,-3.81
2019-01-25T12:16:17.559Z,-3.51
2019-01-25T12:17:17.568Z,-3.55
2019-01-25T12:18:17.624Z,-3.28
2019-01-25T12:19:17.511Z,-3.47
2019-01-25T12:20:17.511Z,-3.46
2019-01-25T12:21:17.511Z,-3.91
2019-01-25T12:22:17.482Z,-3.86
2019-01-25T12:23:17.521Z,-3.62
2019-01-25T12:24:17.456Z,-3.62
2019-01-25T12:25:17.463Z,-3.19
2019-01-25T12:26:17.431Z,-3.57
2019-01-25T12:27:17.430Z,-3.74
2019-01-25T12:28:17.417Z,-3.70
2019-01-25T12:29:17.450Z,-3.22
2019-01-25T12:30:17.390Z,-3.65
2019-01-25T12:31:17.395Z,-3.61
2019-01-25T12:32:17.371Z,-3.52
2019-01-25T12:33:17.365Z,-3.69
2019-01-25T12:34:17.352Z,-3.88